createdAt,value
2023-09-27T00:02:23.723Z,26.27
2023-09-27T00:04:50.258Z,26.26
2023-09-27T00:07:16.798Z,26.27
2023-09-27T00:09:43.224Z,26.27
2023-09-27T00:12:09.638Z,26.27
2023-09-27T00:14:36.004Z,26.27
2023-09-27T00:17:02.442Z,26.27
2023-09-27T00:19:29.571Z,26.24
2023-09-27T00:21:55.952Z,26.25
2023-09-27T00:24:22.399Z,26.26
2023-09-27T00:26:48.783Z,26.25
2023-09-27T00:29:15.157Z,26.26
2023-09-27T00:31:41.608Z,26.26
2023-09-27T00:34:08.020Z,26.25
2023-09-27T00:36:34.431Z,26.25
2023-09-27T00:39:00.834Z,26.26
2023-09-27T00:41:27.265Z,26.26
2023-09-27T00:43:53.721Z,26.26
2023-09-27T00:46:20.179Z,26.23
2023-09-27T00:48:46.565Z,26.24
2023-09-27T00:51:12.990Z,26.22
2023-09-27T00:53:39.395Z,26.22
2023-09-27T00:56:07.309Z,26.22
2023-09-27T00:58:33.990Z,26.22
2023-09-27T01:01:00.426Z,26.18
2023-09-27T01:03:26.881Z,26.23
2023-09-27T01:05:53.369Z,26.24
2023-09-27T01:08:19.881Z,26.22
2023-09-27T01:10:46.313Z,26.24
2023-09-27T01:13:12.718Z,26.24
2023-09-27T01:15:39.264Z,26.24
2023-09-27T01:18:05.769Z,26.24
2023-09-27T01:20:32.350Z,26.23
2023-09-27T01:22:58.821Z,26.24
2023-09-27T01:25:25.257Z,26.21
2023-09-27T01:27:51.621Z,26.22
2023-09-27T01:30:18.021Z,26.23
2023-09-27T01:32:44.518Z,26.23
2023-09-27T01:35:11.073Z,26.21
2023-09-27T01:37:37.525Z,26.21
2023-09-27T01:40:03.952Z,26.20
2023-09-27T01:42:30.377Z,26.21
2023-09-27T01:44:56.789Z,26.20
2023-09-27T01:47:23.179Z,26.19
2023-09-27T01:49:49.626Z,26.20
2023-09-27T01:52:16.023Z,26.21
2023-09-27T01:54:42.393Z,26.21
2023-09-27T01:57:08.766Z,26.22
2023-09-27T01:59:35.234Z,26.21
2023-09-27T02:02:01.685Z,26.19
2023-09-27T02:04:28.192Z,26.18
2023-09-27T02:06:54.620Z,26.20
2023-09-27T02:09:20.983Z,26.21
2023-09-27T02:11:47.429Z,26.21
2023-09-27T02:14:13.873Z,26.21
2023-09-27T02:16:40.267Z,26.18
2023-09-27T02:19:06.667Z,26.19
2023-09-27T02:21:33.068Z,26.19
2023-09-27T02:23:59.448Z,26.20
2023-09-27T02:26:25.857Z,26.20
2023-09-27T02:28:52.502Z,26.19
2023-09-27T02:31:19.160Z,26.19
2023-09-27T02:33:45.573Z,26.17
2023-09-27T02:36:11.997Z,26.20
2023-09-27T02:38:38.435Z,26.19
2023-09-27T02:41:04.883Z,26.16
2023-09-27T02:43:31.338Z,26.17
2023-09-27T02:45:57.779Z,26.18
2023-09-27T02:48:24.255Z,26.16
2023-09-27T02:50:50.704Z,26.19
2023-09-27T02:53:17.143Z,26.16
2023-09-27T02:55:43.630Z,26.14
2023-09-27T02:58:10.083Z,26.16
2023-09-27T03:00:36.505Z,26.15
2023-09-27T03:03:02.910Z,26.15
2023-09-27T03:05:29.427Z,26.16
2023-09-27T03:07:55.882Z,26.17
2023-09-27T03:10:22.309Z,26.15
2023-09-27T03:12:48.775Z,26.16
2023-09-27T03:15:15.191Z,26.17
2023-09-27T03:17:41.875Z,26.17
2023-09-27T03:20:08.544Z,26.14
2023-09-27T03:22:34.940Z,26.15
2023-09-27T03:25:01.360Z,26.16
2023-09-27T03:27:27.727Z,26.15
2023-09-27T03:29:54.138Z,26.14
2023-09-27T03:32:20.531Z,26.15
2023-09-27T03:34:46.937Z,26.13
2023-09-27T03:37:13.304Z,26.12
2023-09-27T03:39:39.693Z,26.14
2023-09-27T03:42:06.101Z,26.13
2023-09-27T03:44:32.520Z,26.11
2023-09-27T03:46:59.055Z,26.13
2023-09-27T03:49:25.491Z,26.13
2023-09-27T03:51:51.850Z,26.11
2023-09-27T03:54:18.249Z,26.14
2023-09-27T03:56:44.659Z,26.12
2023-09-27T03:59:11.082Z,26.12
2023-09-27T04:01:37.508Z,26.12
2023-09-27T04:04:04.009Z,26.12
2023-09-27T04:06:30.458Z,26.12
2023-09-27T04:08:56.836Z,26.09
2023-09-27T04:11:23.260Z,26.06
2023-09-27T04:13:49.736Z,26.11
2023-09-27T04:16:16.275Z,26.08
2023-09-27T04:18:42.697Z,26.10
2023-09-27T04:21:09.114Z,26.08
2023-09-27T04:23:35.538Z,26.08
2023-09-27T04:26:01.994Z,26.09
2023-09-27T04:28:28.408Z,26.07
2023-09-27T04:30:54.815Z,26.08
2023-09-27T04:33:21.301Z,26.08
2023-09-27T04:35:48.396Z,26.06
2023-09-27T04:38:14.770Z,26.06
2023-09-27T04:40:41.142Z,26.07
2023-09-27T04:43:07.524Z,26.06
2023-09-27T04:45:33.948Z,26.06
2023-09-27T04:48:00.318Z,26.06
2023-09-27T04:50:26.718Z,26.05
2023-09-27T04:52:53.146Z,26.05
2023-09-27T04:55:19.574Z,26.04
2023-09-27T04:57:45.940Z,26.04
2023-09-27T05:00:12.311Z,26.05
2023-09-27T05:02:38.811Z,26.03
2023-09-27T05:05:05.338Z,26.02
2023-09-27T05:07:31.800Z,26.04
2023-09-27T05:09:58.164Z,26.07
2023-09-27T05:12:24.556Z,26.06
2023-09-27T05:14:50.968Z,26.08
2023-09-27T05:17:17.402Z,26.04
2023-09-27T05:19:43.782Z,26.05
2023-09-27T05:22:10.132Z,26.04
2023-09-27T05:24:36.481Z,26.03
2023-09-27T05:27:02.849Z,26.04
2023-09-27T05:29:29.210Z,26.01
2023-09-27T05:31:55.678Z,26.01
2023-09-27T05:34:22.037Z,26.03
2023-09-27T05:36:48.406Z,26.02
2023-09-27T05:39:14.774Z,26.01
2023-09-27T05:41:41.222Z,26.02
2023-09-27T05:44:07.656Z,26.03
2023-09-27T05:46:34.037Z,26.03
2023-09-27T05:49:00.457Z,26.02
2023-09-27T05:51:26.811Z,25.99
2023-09-27T05:53:53.303Z,26.01
2023-09-27T05:56:19.762Z,25.99
2023-09-27T05:58:46.166Z,25.99
2023-09-27T06:01:12.685Z,25.98
2023-09-27T06:03:39.204Z,25.99
2023-09-27T06:06:05.710Z,26.01
2023-09-27T06:08:32.210Z,26.00
2023-09-27T06:10:58.812Z,26.00
2023-09-27T06:13:25.280Z,26.00
2023-09-27T06:15:51.740Z,26.02
2023-09-27T06:18:18.220Z,26.01
2023-09-27T06:20:44.789Z,26.00
2023-09-27T06:23:11.209Z,26.01
2023-09-27T06:25:37.624Z,25.99
2023-09-27T06:28:03.981Z,26.05
2023-09-27T06:30:30.509Z,26.02
2023-09-27T06:32:57.053Z,26.05
2023-09-27T06:35:23.583Z,26.03
2023-09-27T06:37:50.277Z,26.05
2023-09-27T06:40:16.964Z,26.06
2023-09-27T06:42:43.352Z,26.06
2023-09-27T06:45:09.783Z,26.10
2023-09-27T06:47:36.279Z,26.13
2023-09-27T06:50:02.758Z,26.15
2023-09-27T06:52:29.194Z,26.20
2023-09-27T06:54:55.594Z,26.25
2023-09-27T06:57:21.946Z,26.34
2023-09-27T06:59:48.307Z,26.31
2023-09-27T07:02:14.685Z,26.33
2023-09-27T07:04:41.134Z,26.39
2023-09-27T07:07:07.522Z,26.37
2023-09-27T07:09:33.932Z,26.37
2023-09-27T07:12:00.356Z,26.43
2023-09-27T07:14:26.871Z,26.48
2023-09-27T07:17:00.803Z,26.53
2023-09-27T07:19:28.157Z,26.47
2023-09-27T07:21:54.510Z,26.47
2023-09-27T07:24:20.848Z,26.42
2023-09-27T07:26:48.511Z,26.45
2023-09-27T07:29:15.280Z,26.52
2023-09-27T07:31:41.769Z,26.61
2023-09-27T07:34:08.172Z,26.61
2023-09-27T07:36:34.561Z,26.63
2023-09-27T07:39:01.135Z,26.57
2023-09-27T07:41:27.690Z,26.55
2023-09-27T07:43:54.448Z,26.56
2023-09-27T07:46:21.093Z,26.57
2023-09-27T07:48:47.469Z,26.57
2023-09-27T07:51:13.815Z,26.61
2023-09-27T07:53:40.256Z,26.64
2023-09-27T07:56:06.652Z,26.70
2023-09-27T07:58:33.020Z,26.65
2023-09-27T08:00:59.525Z,26.63
2023-09-27T08:03:26.174Z,26.63
2023-09-27T08:05:52.576Z,26.60
2023-09-27T08:08:19.003Z,26.61
2023-09-27T08:10:45.433Z,26.69
2023-09-27T08:13:11.888Z,26.65
2023-09-27T08:15:38.334Z,26.67
2023-09-27T08:18:04.796Z,26.72
2023-09-27T08:20:31.260Z,26.75
2023-09-27T08:22:57.672Z,26.77
2023-09-27T08:25:24.050Z,26.71
2023-09-27T08:27:50.412Z,26.74
2023-09-27T08:30:16.803Z,26.73
2023-09-27T08:32:43.596Z,26.75
2023-09-27T08:35:10.226Z,26.69
2023-09-27T08:37:36.648Z,26.75
2023-09-27T08:40:03.232Z,26.73
2023-09-27T08:42:29.629Z,26.79
2023-09-27T08:44:56.001Z,26.78
2023-09-27T08:47:22.371Z,26.80
2023-09-27T08:49:48.788Z,26.80
2023-09-27T08:52:15.190Z,26.84
2023-09-27T08:54:41.584Z,26.85
2023-09-27T08:57:07.993Z,26.87
2023-09-27T08:59:34.432Z,26.87
2023-09-27T09:02:00.960Z,26.90
2023-09-27T09:04:27.503Z,26.87
2023-09-27T09:06:53.906Z,26.87
2023-09-27T09:09:20.356Z,26.92
2023-09-27T09:11:46.881Z,26.92
2023-09-27T09:14:13.303Z,26.93
2023-09-27T09:16:39.788Z,26.95
2023-09-27T09:19:06.198Z,27.01
2023-09-27T09:21:32.591Z,27.05
2023-09-27T09:23:58.965Z,27.09
2023-09-27T09:26:25.324Z,27.14
2023-09-27T09:28:52.876Z,27.22
2023-09-27T09:31:19.517Z,27.25
2023-09-27T09:33:45.945Z,27.32
2023-09-27T09:36:12.404Z,27.36
2023-09-27T09:38:38.860Z,27.36
2023-09-27T09:41:05.368Z,27.37
2023-09-27T09:43:31.785Z,27.37
2023-09-27T09:45:58.195Z,27.38
2023-09-27T09:48:24.691Z,27.38
2023-09-27T09:50:51.154Z,27.40
2023-09-27T09:53:17.561Z,27.43
2023-09-27T09:58:13.325Z,27.43
2023-09-27T10:00:39.732Z,27.43
2023-09-27T10:03:06.196Z,27.41
2023-09-27T10:05:32.653Z,27.46
2023-09-27T10:07:59.086Z,27.46
2023-09-27T10:10:25.478Z,27.46
2023-09-27T10:12:51.853Z,27.49
2023-09-27T10:15:18.197Z,27.48
2023-09-27T10:17:44.602Z,27.50
2023-09-27T10:20:11.156Z,27.52
2023-09-27T10:22:37.666Z,27.48
2023-09-27T10:25:04.064Z,27.50
2023-09-27T10:27:30.484Z,27.53
2023-09-27T10:29:56.847Z,27.50
2023-09-27T10:32:23.293Z,27.53
2023-09-27T10:34:49.745Z,27.53
2023-09-27T10:37:19.298Z,27.54
2023-09-27T10:39:46.190Z,27.52
2023-09-27T10:42:12.653Z,27.52
2023-09-27T10:44:39.095Z,27.48
2023-09-27T10:47:05.565Z,27.46
2023-09-27T10:49:31.945Z,27.44
2023-09-27T10:52:06.490Z,27.41
2023-09-27T10:54:33.768Z,27.41
2023-09-27T10:57:00.138Z,27.40
2023-09-27T10:59:26.570Z,27.41
2023-09-27T11:01:53.072Z,27.37
2023-09-27T11:04:19.506Z,27.33
2023-09-27T11:06:46.005Z,27.34
2023-09-27T11:09:12.356Z,27.28
2023-09-27T11:11:38.801Z,27.26
2023-09-27T11:14:05.164Z,27.25
2023-09-27T11:16:31.556Z,27.28
2023-09-27T11:18:57.993Z,27.24
2023-09-27T11:21:24.404Z,27.24
2023-09-27T11:23:51.146Z,27.25
2023-09-27T11:26:17.705Z,27.22
2023-09-27T11:28:44.119Z,27.24
2023-09-27T11:31:10.531Z,27.18
2023-09-27T11:33:36.947Z,27.16
2023-09-27T11:36:03.344Z,27.15
2023-09-27T11:38:29.771Z,27.16
2023-09-27T11:40:56.182Z,27.23
2023-09-27T11:43:22.590Z,27.22
2023-09-27T11:45:49.389Z,27.12
2023-09-27T11:48:16.022Z,27.15
2023-09-27T11:50:42.501Z,27.17
2023-09-27T11:53:09.149Z,27.12
2023-09-27T11:55:35.645Z,27.13
2023-09-27T11:58:02.034Z,27.06
2023-09-27T12:00:28.413Z,27.13
2023-09-27T12:02:57.683Z,27.12
2023-09-27T12:05:25.230Z,27.11
2023-09-27T12:07:52.065Z,27.11
2023-09-27T12:10:18.455Z,27.11
2023-09-27T12:12:44.866Z,27.09
2023-09-27T12:15:11.321Z,27.10
2023-09-27T12:17:37.813Z,27.13
2023-09-27T12:20:04.273Z,27.09
2023-09-27T12:22:30.679Z,27.09
2023-09-27T12:24:57.079Z,27.10
2023-09-27T12:27:23.509Z,27.10
2023-09-27T12:29:49.974Z,27.13
2023-09-27T12:32:16.411Z,27.08
2023-09-27T12:34:42.866Z,27.10
2023-09-27T12:37:09.372Z,27.03
2023-09-27T12:39:35.753Z,27.04
2023-09-27T12:42:02.124Z,27.07
2023-09-27T12:44:28.567Z,27.02
2023-09-27T12:46:54.967Z,27.06
2023-09-27T12:49:21.350Z,27.00
2023-09-27T12:51:49.730Z,27.07
2023-09-27T12:54:16.625Z,27.07
2023-09-27T12:56:43.143Z,27.04
2023-09-27T12:59:09.567Z,27.01
2023-09-27T13:01:37.458Z,27.01
2023-09-27T13:04:04.063Z,27.02
2023-09-27T13:06:30.580Z,27.05
2023-09-27T13:08:57.162Z,27.04
2023-09-27T13:11:23.631Z,27.02
2023-09-27T13:13:50.038Z,27.04
2023-09-27T13:16:16.473Z,27.05
2023-09-27T13:18:42.889Z,27.04
2023-09-27T13:21:09.307Z,27.01
2023-09-27T13:23:35.730Z,27.06
2023-09-27T13:26:02.098Z,27.08
2023-09-27T13:28:28.449Z,27.07
2023-09-27T13:30:54.890Z,27.04
2023-09-27T13:33:21.343Z,27.02
2023-09-27T13:35:47.825Z,27.05
2023-09-27T13:38:14.279Z,27.04
2023-09-27T13:40:40.740Z,27.05
2023-09-27T13:43:09.929Z,27.10
2023-09-27T13:45:36.461Z,27.13
2023-09-27T13:48:03.052Z,27.09
2023-09-27T13:50:29.575Z,27.09
2023-09-27T13:52:55.978Z,27.12
2023-09-27T13:55:22.400Z,27.08
2023-09-27T13:57:48.765Z,27.09
2023-09-27T14:00:15.175Z,27.09
2023-09-27T14:02:43.606Z,27.10
2023-09-27T14:05:10.562Z,27.14
2023-09-27T14:07:36.980Z,27.10
2023-09-27T14:10:03.369Z,27.10
2023-09-27T14:12:29.771Z,27.09
2023-09-27T14:14:56.319Z,27.10
2023-09-27T14:17:22.763Z,27.07
2023-09-27T14:19:49.209Z,27.10
2023-09-27T14:22:15.628Z,27.14
2023-09-27T14:24:42.130Z,27.12
2023-09-27T14:27:08.523Z,27.12
2023-09-27T14:29:36.020Z,27.12
2023-09-27T14:32:03.860Z,27.17
2023-09-27T14:34:41.591Z,27.12
2023-09-27T14:37:09.364Z,27.14
2023-09-27T14:39:35.757Z,27.14
2023-09-27T14:42:02.142Z,27.12
2023-09-27T14:44:28.553Z,27.14
2023-09-27T14:46:55.008Z,27.19
2023-09-27T14:49:21.464Z,27.14
2023-09-27T14:51:47.885Z,27.18
2023-09-27T14:54:14.278Z,27.15
2023-09-27T14:56:40.721Z,27.17
2023-09-27T14:59:07.106Z,27.16
2023-09-27T15:01:33.655Z,27.15
2023-09-27T15:04:00.328Z,27.19
2023-09-27T15:06:26.778Z,27.25
2023-09-27T15:08:53.184Z,27.20
2023-09-27T15:11:19.709Z,27.23
2023-09-27T15:13:46.179Z,27.21
2023-09-27T15:16:12.637Z,27.19
2023-09-27T15:18:39.004Z,27.20
2023-09-27T15:21:05.385Z,27.21
2023-09-27T15:23:31.745Z,27.22
2023-09-27T15:25:58.249Z,27.20
2023-09-27T15:28:24.767Z,27.21
2023-09-27T15:30:51.197Z,27.21
2023-09-27T15:33:17.588Z,27.21
2023-09-27T15:35:43.980Z,27.21
2023-09-27T15:38:10.360Z,27.22
2023-09-27T15:40:36.889Z,27.22
2023-09-27T15:43:03.246Z,27.25
2023-09-27T15:45:29.664Z,27.25
2023-09-27T15:47:56.177Z,27.19
2023-09-27T15:50:22.627Z,27.18
2023-09-27T15:52:49.141Z,27.20
2023-09-27T15:55:15.570Z,27.24
2023-09-27T15:57:41.967Z,27.24
2023-09-27T16:00:08.413Z,27.27
2023-09-27T16:02:34.807Z,27.25
2023-09-27T16:05:01.257Z,27.23
2023-09-27T16:07:27.657Z,27.25
2023-09-27T16:09:54.019Z,27.26
2023-09-27T16:12:20.390Z,27.23
2023-09-27T16:14:46.757Z,27.21
2023-09-27T16:17:13.163Z,27.25
2023-09-27T16:19:39.580Z,27.25
2023-09-27T16:22:06.025Z,27.26
2023-09-27T16:24:32.429Z,27.26
2023-09-27T16:26:58.797Z,27.24
2023-09-27T16:29:25.200Z,27.22
2023-09-27T16:31:52.090Z,27.24
2023-09-27T16:34:18.550Z,27.23
2023-09-27T16:36:45.982Z,27.25
2023-09-27T16:39:12.556Z,27.23
2023-09-27T16:41:38.973Z,27.21
2023-09-27T16:44:05.428Z,27.24
2023-09-27T16:46:31.874Z,27.23
2023-09-27T16:48:58.294Z,27.21
2023-09-27T16:51:24.779Z,27.25
2023-09-27T16:53:51.395Z,27.26
2023-09-27T16:56:18.010Z,27.24
2023-09-27T16:58:44.777Z,27.25
2023-09-27T17:01:11.353Z,27.25
2023-09-27T17:03:37.822Z,27.22
2023-09-27T17:06:04.259Z,27.26
2023-09-27T17:08:30.641Z,27.28
2023-09-27T17:10:57.083Z,27.26
2023-09-27T17:13:23.576Z,27.21
2023-09-27T17:15:50.062Z,27.21
2023-09-27T17:18:16.545Z,27.24
2023-09-27T17:20:42.982Z,27.23
2023-09-27T17:23:09.423Z,27.27
2023-09-27T17:25:35.872Z,27.22
2023-09-27T17:28:02.349Z,27.23
2023-09-27T17:30:28.722Z,27.23
2023-09-27T17:32:55.247Z,27.26
2023-09-27T17:35:21.670Z,27.25
2023-09-27T17:37:48.059Z,27.24
2023-09-27T17:40:14.451Z,27.25
2023-09-27T17:42:40.861Z,27.24
2023-09-27T17:45:07.209Z,27.21
2023-09-27T17:47:33.579Z,27.23
2023-09-27T17:50:00.164Z,27.23
2023-09-27T17:52:26.604Z,27.27
2023-09-27T17:54:52.974Z,27.27
2023-09-27T17:57:19.441Z,27.24
2023-09-27T17:59:45.832Z,27.24
2023-09-27T18:02:12.412Z,27.23
2023-09-27T18:04:38.919Z,27.20
2023-09-27T18:07:05.314Z,27.24
2023-09-27T18:09:31.695Z,27.25
2023-09-27T18:11:58.085Z,27.23
2023-09-27T18:14:24.515Z,27.24
2023-09-27T18:16:50.958Z,27.24
2023-09-27T18:19:17.398Z,27.26
2023-09-27T18:21:43.761Z,27.26
2023-09-27T18:24:10.128Z,27.23
2023-09-27T18:26:36.521Z,27.23
2023-09-27T18:29:02.930Z,27.24
2023-09-27T18:31:29.503Z,27.25
2023-09-27T18:33:56.001Z,27.25
2023-09-27T18:36:22.435Z,27.21
2023-09-27T18:38:48.794Z,27.20
2023-09-27T18:41:15.181Z,27.24
2023-09-27T18:43:41.627Z,27.23
2023-09-27T18:46:08.103Z,27.21
2023-09-27T18:48:34.583Z,27.23
2023-09-27T18:51:00.957Z,27.21
2023-09-27T18:53:27.317Z,27.25
2023-09-27T18:55:53.792Z,27.22
2023-09-27T18:58:20.259Z,27.25
2023-09-27T19:00:46.621Z,27.24
2023-09-27T19:03:12.999Z,27.22
2023-09-27T19:05:39.361Z,27.23
2023-09-27T19:08:05.775Z,27.24
2023-09-27T19:10:32.233Z,27.26
2023-09-27T19:12:58.671Z,27.24
2023-09-27T19:15:25.081Z,27.22
2023-09-27T19:17:51.607Z,27.23
2023-09-27T19:20:17.998Z,27.23
2023-09-27T19:22:44.367Z,27.26
2023-09-27T19:25:10.843Z,27.26
2023-09-27T19:27:37.234Z,27.23
2023-09-27T19:30:03.624Z,27.23
2023-09-27T19:32:30.033Z,27.25
2023-09-27T19:34:56.463Z,27.24
2023-09-27T19:37:22.853Z,27.23
2023-09-27T19:39:49.235Z,27.25
2023-09-27T19:42:15.611Z,27.25
2023-09-27T19:44:41.982Z,27.26
2023-09-27T19:47:08.423Z,27.23
2023-09-27T19:49:34.832Z,27.24
2023-09-27T19:52:01.246Z,27.24
2023-09-27T19:54:27.728Z,27.28
2023-09-27T19:56:54.139Z,27.29
2023-09-27T19:59:20.573Z,27.28
2023-09-27T20:01:47.117Z,27.23
2023-09-27T20:04:13.624Z,27.26
2023-09-27T20:06:40.097Z,27.28
2023-09-27T20:09:06.535Z,27.27
2023-09-27T20:11:32.950Z,27.25
2023-09-27T20:13:59.354Z,27.26
2023-09-27T20:16:25.846Z,27.26
2023-09-27T20:18:52.255Z,27.28
2023-09-27T20:21:18.614Z,27.25
2023-09-27T20:23:44.990Z,27.27
2023-09-27T20:26:11.482Z,27.26
2023-09-27T20:28:37.918Z,27.26
2023-09-27T20:31:04.371Z,27.25
2023-09-27T20:33:30.805Z,27.25
2023-09-27T20:35:57.173Z,27.24
2023-09-27T20:38:23.553Z,27.25
2023-09-27T20:40:49.949Z,27.27
2023-09-27T20:43:16.556Z,27.29
2023-09-27T20:45:42.987Z,27.29
2023-09-27T20:48:09.437Z,27.28
2023-09-27T20:50:35.878Z,27.24
2023-09-27T20:53:02.340Z,27.26
2023-09-27T20:55:28.780Z,27.26
2023-09-27T20:57:55.231Z,27.25
2023-09-27T21:00:21.616Z,27.26
2023-09-27T21:02:48.107Z,27.25
2023-09-27T21:05:14.529Z,27.23
2023-09-27T21:07:40.933Z,27.26
2023-09-27T21:10:07.304Z,27.24
2023-09-27T21:12:33.724Z,27.24
2023-09-27T21:15:00.142Z,27.26
2023-09-27T21:17:26.667Z,27.24
2023-09-27T21:19:53.098Z,27.29
2023-09-27T21:22:19.560Z,27.28
2023-09-27T21:24:45.999Z,27.25
2023-09-27T21:27:12.371Z,27.24
2023-09-27T21:29:38.792Z,27.24
2023-09-27T21:32:05.181Z,27.25
2023-09-27T21:34:31.588Z,27.25
2023-09-27T21:36:58.016Z,27.25
2023-09-27T21:39:24.371Z,27.26
2023-09-27T21:41:50.710Z,27.29
2023-09-27T21:44:17.167Z,27.28
2023-09-27T21:46:43.653Z,27.27
2023-09-27T21:49:10.100Z,27.28
2023-09-27T21:51:36.477Z,27.26
2023-09-27T21:54:02.869Z,27.24
2023-09-27T21:56:29.244Z,27.27
2023-09-27T21:58:55.647Z,27.23
2023-09-27T22:01:22.148Z,27.23
2023-09-27T22:03:48.650Z,27.24
2023-09-27T22:06:15.093Z,27.24
2023-09-27T22:08:41.592Z,27.23
2023-09-27T22:11:08.069Z,27.24
2023-09-27T22:13:34.495Z,27.23
2023-09-27T22:16:00.926Z,27.21
2023-09-27T22:18:27.334Z,27.21
2023-09-27T22:20:53.723Z,27.22
2023-09-27T22:23:20.101Z,27.25
2023-09-27T22:25:46.521Z,27.22
2023-09-27T22:28:12.912Z,27.22
2023-09-27T22:30:39.328Z,27.21
2023-09-27T22:33:05.732Z,27.22
2023-09-27T22:35:32.173Z,27.23
2023-09-27T22:37:58.606Z,27.20
2023-09-27T22:40:25.007Z,27.23
2023-09-27T22:42:51.430Z,27.24
2023-09-27T22:45:17.845Z,27.23
2023-09-27T22:47:44.233Z,27.23
2023-09-27T22:50:10.673Z,27.21
2023-09-27T22:52:37.121Z,27.21
2023-09-27T22:55:03.614Z,27.22
2023-09-27T22:57:30.022Z,27.21
2023-09-27T22:59:56.449Z,27.22
2023-09-27T23:02:22.846Z,27.20
2023-09-27T23:04:49.466Z,27.19
2023-09-27T23:07:15.930Z,27.23
2023-09-27T23:09:42.281Z,27.22
2023-09-27T23:12:08.669Z,27.19
2023-09-27T23:14:35.058Z,27.21
2023-09-27T23:17:01.471Z,27.20
2023-09-27T23:19:27.878Z,27.20
2023-09-27T23:21:54.260Z,27.19
2023-09-27T23:24:20.686Z,27.22
2023-09-27T23:26:47.132Z,27.20
2023-09-27T23:29:13.536Z,27.21
2023-09-27T23:31:39.957Z,27.22
2023-09-27T23:34:06.388Z,27.20
2023-09-27T23:36:32.746Z,27.20
2023-09-27T23:38:59.644Z,27.19
2023-09-27T23:41:26.227Z,27.18
2023-09-27T23:43:52.840Z,27.17
2023-09-27T23:46:19.444Z,27.18
2023-09-27T23:48:45.849Z,27.20
2023-09-27T23:51:12.245Z,27.18
2023-09-27T23:53:38.665Z,27.16
2023-09-27T23:56:05.160Z,27.18
2023-09-27T23:58:31.612Z,27.15
